createdAt,value
2022-10-04T00:00:09.385Z,1016.76
2022-10-04T00:01:09.387Z,1016.78
2022-10-04T00:02:09.453Z,1016.75
2022-10-04T00:03:09.434Z,1016.78
2022-10-04T00:04:09.393Z,1016.77
2022-10-04T00:05:09.384Z,1016.78
2022-10-04T00:06:09.388Z,1016.78
2022-10-04T00:07:09.377Z,1016.75
2022-10-04T00:08:09.386Z,1016.79
2022-10-04T00:09:09.378Z,1016.72
2022-10-04T00:10:09.396Z,1016.73
2022-10-04T00:11:09.375Z,1016.76
2022-10-04T00:12:09.378Z,1016.73
2022-10-04T00:13:09.382Z,1016.73
2022-10-04T00:14:09.382Z,1016.76
2022-10-04T00:15:09.375Z,1016.77
2022-10-04T00:16:09.429Z,1016.72
2022-10-04T00:17:09.377Z,1016.77
2022-10-04T00:18:09.382Z,1016.79
2022-10-04T00:19:09.376Z,1016.80
2022-10-04T00:20:09.378Z,1016.78
2022-10-04T00:21:09.377Z,1016.80
2022-10-04T00:22:09.378Z,1016.78
2022-10-04T00:23:09.376Z,1016.77
2022-10-04T00:24:09.379Z,1016.80
2022-10-04T00:25:09.375Z,1016.83
2022-10-04T00:26:09.390Z,1016.82
2022-10-04T00:27:09.374Z,1016.81
2022-10-04T00:28:09.403Z,1016.84
2022-10-04T00:29:09.372Z,1016.81
2022-10-04T00:30:09.376Z,1016.79
2022-10-04T00:31:09.421Z,1016.80
2022-10-04T00:32:09.375Z,1016.74
2022-10-04T00:33:09.375Z,1016.78
2022-10-04T00:34:09.382Z,1016.81
2022-10-04T00:35:09.371Z,1016.79
2022-10-04T00:36:09.374Z,1016.77
2022-10-04T00:37:09.365Z,1016.77
2022-10-04T00:38:09.372Z,1016.78
2022-10-04T00:39:09.378Z,1016.74
2022-10-04T00:40:09.367Z,1016.81
2022-10-04T00:41:09.367Z,1016.76
2022-10-04T00:42:09.388Z,1016.74
2022-10-04T00:43:09.369Z,1016.71
2022-10-04T00:44:09.373Z,1016.72
2022-10-04T00:45:09.367Z,1016.69
2022-10-04T00:46:09.397Z,1016.76
2022-10-04T00:47:09.364Z,1016.74
2022-10-04T00:48:09.368Z,1016.75
2022-10-04T00:49:09.365Z,1016.78
2022-10-04T00:50:09.367Z,1016.76
2022-10-04T00:51:09.364Z,1016.76
2022-10-04T00:52:09.418Z,1016.75
2022-10-04T00:53:09.366Z,1016.72
2022-10-04T00:54:09.368Z,1016.72
2022-10-04T00:55:09.362Z,1016.74
2022-10-04T00:56:09.370Z,1016.70
2022-10-04T00:57:09.360Z,1016.71
2022-10-04T00:58:09.483Z,1016.73
2022-10-04T00:59:09.362Z,1016.75
2022-10-04T01:00:09.364Z,1016.77
2022-10-04T01:01:09.453Z,1016.70
2022-10-04T01:02:09.443Z,1016.76
2022-10-04T01:03:09.365Z,1016.76
2022-10-04T01:04:09.360Z,1016.75
2022-10-04T01:05:09.360Z,1016.75
2022-10-04T01:06:09.366Z,1016.73
2022-10-04T01:07:09.357Z,1016.73
2022-10-04T01:08:09.361Z,1016.73
2022-10-04T01:09:09.360Z,1016.72
2022-10-04T01:10:09.360Z,1016.70
2022-10-04T01:11:09.361Z,1016.70
2022-10-04T01:12:09.364Z,1016.71
2022-10-04T01:13:09.360Z,1016.66
2022-10-04T01:14:09.377Z,1016.72
2022-10-04T01:15:09.359Z,1016.76
2022-10-04T01:16:09.532Z,1016.72
2022-10-04T01:17:09.356Z,1016.70
2022-10-04T01:18:09.717Z,1016.69
2022-10-04T01:19:09.359Z,1016.65
2022-10-04T01:20:09.352Z,1016.64
2022-10-04T01:21:09.362Z,1016.64
2022-10-04T01:22:09.370Z,1016.59
2022-10-04T01:23:09.355Z,1016.64
2022-10-04T01:24:09.354Z,1016.67
2022-10-04T01:25:09.352Z,1016.65
2022-10-04T01:26:09.354Z,1016.69
2022-10-04T01:27:09.354Z,1016.67
2022-10-04T01:28:09.397Z,1016.68
2022-10-04T01:29:09.350Z,1016.65
2022-10-04T01:30:09.383Z,1016.70
2022-10-04T01:31:09.390Z,1016.68
2022-10-04T01:32:09.354Z,1016.69
2022-10-04T01:33:09.356Z,1016.70
2022-10-04T01:34:09.351Z,1016.67
2022-10-04T01:35:09.353Z,1016.66
2022-10-04T01:36:09.351Z,1016.66
2022-10-04T01:37:09.344Z,1016.68
2022-10-04T01:38:09.349Z,1016.65
2022-10-04T01:39:09.349Z,1016.61
2022-10-04T01:40:09.344Z,1016.64
2022-10-04T01:41:09.351Z,1016.62
2022-10-04T01:42:09.350Z,1016.63
2022-10-04T01:43:09.349Z,1016.61
2022-10-04T01:44:09.346Z,1016.59
2022-10-04T01:45:09.347Z,1016.61
2022-10-04T01:46:09.438Z,1016.60
2022-10-04T01:47:09.349Z,1016.63
2022-10-04T01:48:09.347Z,1016.67
2022-10-04T01:49:09.344Z,1016.68
2022-10-04T01:50:13.571Z,1016.64
2022-10-04T01:51:09.343Z,1016.69
2022-10-04T01:52:09.397Z,1016.67
2022-10-04T01:53:09.345Z,1016.65
2022-10-04T01:54:09.346Z,1016.68
2022-10-04T01:55:09.342Z,1016.63
2022-10-04T01:56:09.342Z,1016.67
2022-10-04T01:57:09.342Z,1016.70
2022-10-04T01:58:09.346Z,1016.67
2022-10-04T01:59:09.339Z,1016.69
2022-10-04T02:00:09.341Z,1016.69
2022-10-04T02:01:09.376Z,1016.68
2022-10-04T02:02:09.363Z,1016.68
2022-10-04T02:03:09.340Z,1016.68
2022-10-04T02:04:09.411Z,1016.66
2022-10-04T02:05:09.333Z,1016.58
2022-10-04T02:06:09.335Z,1016.64
2022-10-04T02:07:09.349Z,1016.64
2022-10-04T02:08:09.345Z,1016.60
2022-10-04T02:09:09.335Z,1016.61
2022-10-04T02:10:09.333Z,1016.61
2022-10-04T02:11:09.334Z,1016.59
2022-10-04T02:12:09.342Z,1016.57
2022-10-04T02:13:09.331Z,1016.61
2022-10-04T02:14:09.338Z,1016.51
2022-10-04T02:15:09.343Z,1016.59
2022-10-04T02:16:09.399Z,1016.57
2022-10-04T02:17:09.331Z,1016.61
2022-10-04T02:18:09.354Z,1016.58
2022-10-04T02:19:09.343Z,1016.55
2022-10-04T02:20:09.334Z,1016.58
2022-10-04T02:21:09.329Z,1016.56
2022-10-04T02:22:09.331Z,1016.60
2022-10-04T02:23:09.333Z,1016.57
2022-10-04T02:24:09.332Z,1016.59
2022-10-04T02:25:09.329Z,1016.59
2022-10-04T02:26:09.332Z,1016.53
2022-10-04T02:27:09.330Z,1016.55
2022-10-04T02:28:09.377Z,1016.56
2022-10-04T02:29:09.330Z,1016.54
2022-10-04T02:30:09.334Z,1016.52
2022-10-04T02:31:09.438Z,1016.53
2022-10-04T02:32:09.329Z,1016.50
2022-10-04T02:33:09.327Z,1016.47
2022-10-04T02:34:09.350Z,1016.53
2022-10-04T02:35:09.332Z,1016.46
2022-10-04T02:36:09.331Z,1016.52
2022-10-04T02:37:09.330Z,1016.51
2022-10-04T02:38:09.324Z,1016.51
2022-10-04T02:39:09.321Z,1016.47
2022-10-04T02:40:09.331Z,1016.51
2022-10-04T02:41:09.320Z,1016.51
2022-10-04T02:42:09.325Z,1016.51
2022-10-04T02:43:09.320Z,1016.53
2022-10-04T02:44:09.323Z,1016.48
2022-10-04T02:45:09.323Z,1016.53
2022-10-04T02:46:09.425Z,1016.46
2022-10-04T02:47:09.325Z,1016.45
2022-10-04T02:48:09.322Z,1016.46
2022-10-04T02:49:09.320Z,1016.44
2022-10-04T02:50:09.342Z,1016.48
2022-10-04T02:51:09.319Z,1016.43
2022-10-04T02:52:09.368Z,1016.41
2022-10-04T02:53:09.317Z,1016.39
2022-10-04T02:54:09.319Z,1016.41
2022-10-04T02:55:09.321Z,1016.43
2022-10-04T02:56:09.324Z,1016.45
2022-10-04T02:57:09.320Z,1016.48
2022-10-04T02:58:09.315Z,1016.49
2022-10-04T02:59:09.318Z,1016.49
2022-10-04T03:00:09.320Z,1016.50
2022-10-04T03:01:09.367Z,1016.48
2022-10-04T03:02:09.420Z,1016.50
2022-10-04T03:03:09.319Z,1016.53
2022-10-04T03:04:09.316Z,1016.54
2022-10-04T03:05:09.320Z,1016.54
2022-10-04T03:06:09.335Z,1016.53
2022-10-04T03:07:09.311Z,1016.54
2022-10-04T03:08:09.319Z,1016.53
2022-10-04T03:09:09.315Z,1016.51
2022-10-04T03:10:09.318Z,1016.50
2022-10-04T03:11:09.311Z,1016.52
2022-10-04T03:12:09.313Z,1016.54
2022-10-04T03:13:09.314Z,1016.55
2022-10-04T03:14:09.306Z,1016.58
2022-10-04T03:15:09.308Z,1016.55
2022-10-04T03:16:09.361Z,1016.60
2022-10-04T03:17:09.311Z,1016.56
2022-10-04T03:18:09.301Z,1016.57
2022-10-04T03:19:09.315Z,1016.57
2022-10-04T03:20:09.314Z,1016.55
2022-10-04T03:21:09.308Z,1016.50
2022-10-04T03:22:09.332Z,1016.51
2022-10-04T03:23:09.307Z,1016.48
2022-10-04T03:24:09.307Z,1016.52
2022-10-04T03:25:09.306Z,1016.49
2022-10-04T03:26:09.309Z,1016.51
2022-10-04T03:27:09.308Z,1016.54
2022-10-04T03:28:09.369Z,1016.58
2022-10-04T03:29:09.305Z,1016.54
2022-10-04T03:30:09.308Z,1016.53
2022-10-04T03:31:09.387Z,1016.55
2022-10-04T03:32:09.299Z,1016.52
2022-10-04T03:33:09.299Z,1016.57
2022-10-04T03:34:09.305Z,1016.59
2022-10-04T03:35:09.297Z,1016.56
2022-10-04T03:36:09.299Z,1016.56
2022-10-04T03:37:09.299Z,1016.60
2022-10-04T03:38:09.320Z,1016.54
2022-10-04T03:39:09.309Z,1016.57
2022-10-04T03:40:09.296Z,1016.55
2022-10-04T03:41:09.297Z,1016.55
2022-10-04T03:42:09.301Z,1016.57
2022-10-04T03:43:09.297Z,1016.57
2022-10-04T03:44:09.298Z,1016.53
2022-10-04T03:45:09.299Z,1016.55
2022-10-04T03:46:09.408Z,1016.58
2022-10-04T03:47:09.294Z,1016.55
2022-10-04T03:48:09.296Z,1016.61
2022-10-04T03:49:09.293Z,1016.55
2022-10-04T03:50:09.292Z,1016.52
2022-10-04T03:51:09.289Z,1016.55
2022-10-04T03:52:09.301Z,1016.59
2022-10-04T03:53:09.292Z,1016.55
2022-10-04T03:54:09.309Z,1016.58
2022-10-04T03:55:09.291Z,1016.58
2022-10-04T03:56:09.286Z,1016.58
2022-10-04T03:57:09.286Z,1016.57
2022-10-04T03:58:09.289Z,1016.54
2022-10-04T03:59:09.287Z,1016.57
2022-10-04T04:00:09.286Z,1016.59
2022-10-04T04:01:09.381Z,1016.57
2022-10-04T04:02:09.362Z,1016.54
2022-10-04T04:03:09.281Z,1016.55
2022-10-04T04:04:09.284Z,1016.56
2022-10-04T04:05:09.291Z,1016.52
2022-10-04T04:06:09.284Z,1016.54
2022-10-04T04:07:09.289Z,1016.56
2022-10-04T04:08:09.283Z,1016.56
2022-10-04T04:09:09.282Z,1016.55
2022-10-04T04:10:13.205Z,1016.58
2022-10-04T04:11:09.278Z,1016.55
2022-10-04T04:12:09.318Z,1016.58
2022-10-04T04:13:09.300Z,1016.56
2022-10-04T04:14:09.279Z,1016.58
2022-10-04T04:15:09.278Z,1016.64
2022-10-04T04:16:09.345Z,1016.59
2022-10-04T04:17:09.282Z,1016.59
2022-10-04T04:18:09.280Z,1016.62
2022-10-04T04:19:09.281Z,1016.64
2022-10-04T04:20:09.270Z,1016.65
2022-10-04T04:21:09.282Z,1016.63
2022-10-04T04:22:09.277Z,1016.63
2022-10-04T04:23:09.274Z,1016.64
2022-10-04T04:24:09.276Z,1016.70
2022-10-04T04:25:09.274Z,1016.70
2022-10-04T04:26:09.294Z,1016.68
2022-10-04T04:27:09.283Z,1016.70
2022-10-04T04:28:09.379Z,1016.69
2022-10-04T04:29:09.275Z,1016.71
2022-10-04T04:30:09.282Z,1016.71
2022-10-04T04:31:09.301Z,1016.72
2022-10-04T04:32:09.341Z,1016.73
2022-10-04T04:33:09.302Z,1016.70
2022-10-04T04:34:09.282Z,1016.71
2022-10-04T04:35:09.280Z,1016.73
2022-10-04T04:36:09.271Z,1016.72
2022-10-04T04:37:09.274Z,1016.71
2022-10-04T04:38:09.277Z,1016.70
2022-10-04T04:39:09.268Z,1016.73
2022-10-04T04:40:09.264Z,1016.75
2022-10-04T04:41:09.289Z,1016.78
2022-10-04T04:42:09.291Z,1016.74
2022-10-04T04:43:09.284Z,1016.80
2022-10-04T04:44:09.269Z,1016.81
2022-10-04T04:45:09.278Z,1016.80
2022-10-04T04:46:26.653Z,1016.82
2022-10-04T04:47:09.263Z,1016.80
2022-10-04T04:48:09.286Z,1016.79
2022-10-04T04:49:09.283Z,1016.79
2022-10-04T04:50:09.257Z,1016.81
2022-10-04T04:51:09.312Z,1016.78
2022-10-04T04:52:09.278Z,1016.76
2022-10-04T04:53:09.290Z,1016.75
2022-10-04T04:54:09.258Z,1016.79
2022-10-04T04:55:09.257Z,1016.74
2022-10-04T04:56:10.982Z,1016.73
2022-10-04T04:57:09.263Z,1016.75
2022-10-04T04:58:09.282Z,1016.73
2022-10-04T04:59:09.267Z,1016.73
2022-10-04T05:00:09.257Z,1016.72
2022-10-04T05:01:09.339Z,1016.73
2022-10-04T05:02:09.311Z,1016.72
2022-10-04T05:03:09.253Z,1016.74
2022-10-04T05:04:09.258Z,1016.76
2022-10-04T05:05:09.257Z,1016.74
2022-10-04T05:06:09.252Z,1016.72
2022-10-04T05:07:09.248Z,1016.73
2022-10-04T05:08:09.252Z,1016.75
2022-10-04T05:09:09.248Z,1016.76
2022-10-04T05:10:09.250Z,1016.74
2022-10-04T05:11:09.252Z,1016.72
2022-10-04T05:12:09.247Z,1016.74
2022-10-04T05:13:09.254Z,1016.74
2022-10-04T05:14:09.265Z,1016.75
2022-10-04T05:15:09.334Z,1016.78
2022-10-04T05:16:09.295Z,1016.80
2022-10-04T05:17:09.247Z,1016.79
2022-10-04T05:18:09.242Z,1016.77
2022-10-04T05:25:31.754Z,1016.82
2022-10-04T05:26:31.755Z,1016.79
2022-10-04T05:27:31.764Z,1016.79
2022-10-04T05:28:31.818Z,1016.79
2022-10-04T05:29:31.771Z,1016.78
2022-10-04T05:30:31.750Z,1016.77
2022-10-04T05:31:31.774Z,1016.82
2022-10-04T05:32:31.749Z,1016.82
2022-10-04T05:33:33.896Z,1016.83
2022-10-04T05:34:31.750Z,1016.83
2022-10-04T05:35:31.747Z,1016.85
2022-10-04T05:36:31.755Z,1016.86
2022-10-04T05:37:31.750Z,1016.84
2022-10-04T05:38:31.747Z,1016.86
2022-10-04T05:39:31.748Z,1016.81
2022-10-04T05:40:31.745Z,1016.83
2022-10-04T05:41:42.380Z,1016.81
2022-10-04T05:42:31.743Z,1016.82
2022-10-04T05:43:31.742Z,1016.81
2022-10-04T05:44:31.740Z,1016.82
2022-10-04T05:45:31.836Z,1016.86
2022-10-04T05:46:31.743Z,1016.87
2022-10-04T05:47:31.740Z,1016.88
2022-10-04T05:48:31.742Z,1016.87
2022-10-04T05:49:31.739Z,1016.88
2022-10-04T05:50:31.737Z,1016.89
2022-10-04T05:51:31.740Z,1016.94
2022-10-04T05:52:31.741Z,1016.94
2022-10-04T05:53:31.740Z,1016.94
2022-10-04T05:54:31.734Z,1016.97
2022-10-04T05:55:31.736Z,1016.95
2022-10-04T05:56:31.732Z,1016.99
2022-10-04T05:57:31.739Z,1016.98
2022-10-04T05:58:31.733Z,1016.98
2022-10-04T05:59:31.734Z,1017.01
2022-10-04T06:00:31.736Z,1017.02
2022-10-04T06:01:31.980Z,1017.01
2022-10-04T06:02:31.807Z,1017.04
2022-10-04T06:03:31.737Z,1017.04
2022-10-04T06:04:31.734Z,1016.99
2022-10-04T06:05:31.737Z,1017.03
2022-10-04T06:06:31.727Z,1017.01
2022-10-04T06:07:31.732Z,1017.02
2022-10-04T06:08:31.738Z,1017.08
2022-10-04T06:09:31.722Z,1017.08
2022-10-04T06:10:31.729Z,1017.09
2022-10-04T06:11:31.732Z,1017.12
2022-10-04T06:12:31.732Z,1017.15
2022-10-04T06:13:31.727Z,1017.14
2022-10-04T06:14:31.721Z,1017.17
2022-10-04T06:15:31.721Z,1017.19
2022-10-04T06:16:31.799Z,1017.25
2022-10-04T06:17:31.743Z,1017.24
2022-10-04T06:18:31.722Z,1017.22
2022-10-04T06:19:31.729Z,1017.25
2022-10-04T06:20:31.721Z,1017.23
2022-10-04T06:21:31.724Z,1017.25
2022-10-04T06:22:31.722Z,1017.29
2022-10-04T06:23:31.717Z,1017.26
2022-10-04T06:24:31.717Z,1017.28
2022-10-04T06:25:31.720Z,1017.33
2022-10-04T06:26:31.721Z,1017.34
2022-10-04T06:27:31.721Z,1017.32
2022-10-04T06:28:31.769Z,1017.33
2022-10-04T06:29:31.713Z,1017.37
2022-10-04T06:30:31.770Z,1017.37
2022-10-04T06:31:31.719Z,1017.35
2022-10-04T06:32:31.719Z,1017.37
2022-10-04T06:33:31.735Z,1017.37
2022-10-04T06:34:31.711Z,1017.31
2022-10-04T06:35:31.712Z,1017.37
2022-10-04T06:36:31.712Z,1017.36
2022-10-04T06:37:31.714Z,1017.39
2022-10-04T06:38:31.713Z,1017.35
2022-10-04T06:39:31.714Z,1017.39
2022-10-04T06:40:31.705Z,1017.37
2022-10-04T06:41:31.709Z,1017.34
2022-10-04T06:42:31.709Z,1017.33
2022-10-04T06:43:31.709Z,1017.34
2022-10-04T06:44:31.708Z,1017.34
2022-10-04T06:45:31.709Z,1017.35
2022-10-04T06:46:31.831Z,1017.34
2022-10-04T06:47:31.706Z,1017.33
2022-10-04T06:48:31.704Z,1017.32
2022-10-04T06:49:31.729Z,1017.32
2022-10-04T06:50:31.710Z,1017.41
2022-10-04T06:51:31.704Z,1017.42
2022-10-04T06:52:31.704Z,1017.40
2022-10-04T06:53:31.707Z,1017.45
2022-10-04T06:54:31.708Z,1017.48
2022-10-04T06:55:31.703Z,1017.45
2022-10-04T06:56:31.706Z,1017.43
2022-10-04T06:57:31.711Z,1017.48
2022-10-04T06:58:31.704Z,1017.47
2022-10-04T06:59:31.703Z,1017.52
2022-10-04T07:00:31.701Z,1017.53
2022-10-04T07:01:31.802Z,1017.48
2022-10-04T07:02:31.730Z,1017.49
2022-10-04T07:03:31.704Z,1017.50
2022-10-04T07:04:49.960Z,1017.47
2022-10-04T07:05:31.726Z,1017.54
2022-10-04T07:06:31.712Z,1017.49
2022-10-04T07:07:31.698Z,1017.55
2022-10-04T07:08:31.704Z,1017.54
2022-10-04T07:09:31.705Z,1017.69
2022-10-04T07:10:31.698Z,1017.64
2022-10-04T07:11:31.703Z,1017.62
2022-10-04T07:12:31.704Z,1017.66
2022-10-04T07:13:31.700Z,1017.75
2022-10-04T07:14:31.708Z,1017.69
2022-10-04T07:15:31.739Z,1017.70
2022-10-04T07:16:31.704Z,1017.76
2022-10-04T07:17:31.703Z,1017.85
2022-10-04T07:18:31.702Z,1017.82
2022-10-04T07:19:31.702Z,1017.74
2022-10-04T07:20:31.707Z,1017.77
2022-10-04T07:21:31.729Z,1017.71
2022-10-04T07:22:31.707Z,1017.61
2022-10-04T07:23:31.710Z,1017.61
2022-10-04T07:24:31.707Z,1017.70
2022-10-04T07:25:31.704Z,1017.78
2022-10-04T07:26:31.702Z,1017.71
2022-10-04T07:27:31.717Z,1017.73
2022-10-04T07:28:31.762Z,1017.70
2022-10-04T07:29:31.712Z,1017.75
2022-10-04T07:30:31.703Z,1017.74
2022-10-04T07:31:31.702Z,1017.70
2022-10-04T07:32:31.704Z,1017.66
2022-10-04T07:33:31.701Z,1017.75
2022-10-04T07:34:31.706Z,1017.73
2022-10-04T07:35:31.705Z,1017.76
2022-10-04T07:36:31.700Z,1017.82
2022-10-04T07:37:31.725Z,1017.83
2022-10-04T07:38:31.700Z,1017.84
2022-10-04T07:39:31.711Z,1017.91
2022-10-04T07:40:31.706Z,1017.87
2022-10-04T07:41:31.711Z,1017.87
2022-10-04T07:42:31.704Z,1017.82
2022-10-04T07:43:31.704Z,1017.84
2022-10-04T07:44:31.705Z,1017.88
2022-10-04T07:45:31.709Z,1017.86
2022-10-04T07:46:31.735Z,1017.84
2022-10-04T07:47:31.713Z,1017.87
2022-10-04T07:48:31.704Z,1017.87
2022-10-04T07:49:31.709Z,1017.87
2022-10-04T07:50:31.706Z,1017.88
2022-10-04T07:51:31.709Z,1017.91
2022-10-04T07:52:31.705Z,1017.93
2022-10-04T07:53:31.719Z,1017.87
2022-10-04T07:54:31.705Z,1017.88
2022-10-04T07:55:31.705Z,1017.93
2022-10-04T07:56:31.702Z,1017.97
2022-10-04T07:57:31.704Z,1017.94
2022-10-04T07:58:31.705Z,1017.95
2022-10-04T07:59:31.706Z,1018.00
2022-10-04T08:00:31.718Z,1018.03
2022-10-04T08:01:31.759Z,1018.00
2022-10-04T08:02:31.925Z,1017.96
2022-10-04T08:03:31.743Z,1017.97
2022-10-04T08:04:31.708Z,1017.97
2022-10-04T08:05:31.709Z,1018.02
2022-10-04T08:06:31.704Z,1018.00
2022-10-04T08:07:31.706Z,1018.01
2022-10-04T08:08:31.711Z,1018.04
2022-10-04T08:09:31.743Z,1018.05
2022-10-04T08:10:32.518Z,1018.03
2022-10-04T08:11:31.710Z,1018.10
2022-10-04T08:12:31.709Z,1018.10
2022-10-04T08:13:31.707Z,1018.11
2022-10-04T08:14:31.706Z,1018.13
2022-10-04T08:15:31.791Z,1018.16
2022-10-04T08:16:31.708Z,1018.17
2022-10-04T08:17:31.712Z,1018.14
2022-10-04T08:18:31.703Z,1018.17
2022-10-04T08:19:31.706Z,1018.17
2022-10-04T08:20:31.711Z,1018.18
2022-10-04T08:21:31.715Z,1018.19
2022-10-04T08:22:31.709Z,1018.26
2022-10-04T08:23:31.712Z,1018.29
2022-10-04T08:24:31.710Z,1018.35
2022-10-04T08:25:31.758Z,1018.40
2022-10-04T08:26:31.711Z,1018.41
2022-10-04T08:27:31.705Z,1018.40
2022-10-04T08:28:31.771Z,1018.33
2022-10-04T08:29:31.713Z,1018.32
2022-10-04T08:30:31.704Z,1018.33
2022-10-04T08:31:31.878Z,1018.29
2022-10-04T08:32:31.710Z,1018.34
2022-10-04T08:33:31.706Z,1018.32
2022-10-04T08:34:31.709Z,1018.34
2022-10-04T08:35:31.713Z,1018.35
2022-10-04T08:36:31.710Z,1018.36
2022-10-04T08:37:31.709Z,1018.38
2022-10-04T08:38:31.709Z,1018.35
2022-10-04T08:39:31.709Z,1018.34
2022-10-04T08:40:31.708Z,1018.40
2022-10-04T08:41:31.740Z,1018.49
2022-10-04T08:42:31.714Z,1018.60
2022-10-04T08:43:31.714Z,1018.60
2022-10-04T08:44:31.711Z,1018.44
2022-10-04T08:45:31.713Z,1018.41
2022-10-04T08:46:31.769Z,1018.44
2022-10-04T08:47:31.713Z,1018.48
2022-10-04T08:48:31.714Z,1018.42
2022-10-04T08:49:31.711Z,1018.45
2022-10-04T08:50:31.710Z,1018.47
2022-10-04T08:51:31.714Z,1018.57
2022-10-04T08:52:31.710Z,1018.74
2022-10-04T08:53:31.715Z,1018.90
2022-10-04T08:54:31.711Z,1019.10
2022-10-04T08:55:31.716Z,1019.54
2022-10-04T08:56:31.711Z,1020.15
2022-10-04T08:57:31.793Z,1020.40
2022-10-04T08:58:31.715Z,1019.03
2022-10-04T08:59:31.713Z,1018.76
2022-10-04T09:00:31.715Z,1018.61
2022-10-04T09:01:31.785Z,1018.71
2022-10-04T09:02:31.746Z,1018.59
2022-10-04T09:03:31.726Z,1018.65
2022-10-04T09:04:31.720Z,1018.58
2022-10-04T09:05:31.721Z,1018.51
2022-10-04T09:06:31.723Z,1018.63
2022-10-04T09:07:31.724Z,1018.77
2022-10-04T09:08:31.724Z,1018.75
2022-10-04T09:09:31.729Z,1018.77
2022-10-04T09:10:31.727Z,1018.63
2022-10-04T09:11:31.725Z,1018.77
2022-10-04T09:12:31.721Z,1019.20
2022-10-04T09:13:31.919Z,1019.10
2022-10-04T09:14:31.745Z,1019.09
2022-10-04T09:15:31.864Z,1019.25
2022-10-04T09:16:31.735Z,1019.13
2022-10-04T09:17:31.730Z,1019.50
2022-10-04T09:18:31.742Z,1019.59
2022-10-04T09:19:31.734Z,1020.62
2022-10-04T09:20:39.779Z,1019.18
2022-10-04T09:21:31.739Z,1019.40
2022-10-04T09:22:31.741Z,1018.97
2022-10-04T09:23:31.745Z,1019.23
2022-10-04T09:24:31.739Z,1018.92
2022-10-04T09:25:31.750Z,1020.00
2022-10-04T09:26:31.750Z,1020.54
2022-10-04T09:27:54.336Z,1019.64
2022-10-04T09:28:31.817Z,1019.21
2022-10-04T09:29:31.792Z,1018.65
2022-10-04T09:30:31.763Z,1019.21
2022-10-04T09:31:31.861Z,1019.51
2022-10-04T09:32:31.762Z,1018.76
2022-10-04T09:33:31.769Z,1018.72
2022-10-04T09:34:37.058Z,1019.61
2022-10-04T09:35:31.776Z,1019.46
2022-10-04T09:36:31.779Z,1019.03
2022-10-04T09:37:31.783Z,1020.02
2022-10-04T09:38:31.786Z,1020.19
2022-10-04T09:39:31.790Z,1019.65
2022-10-04T09:40:31.794Z,1019.77
2022-10-04T09:41:31.799Z,1019.22
2022-10-04T09:42:31.803Z,1019.49
2022-10-04T09:43:31.809Z,1019.19
2022-10-04T09:44:31.819Z,1018.71
2022-10-04T09:45:31.848Z,1018.82
2022-10-04T09:46:31.910Z,1018.78
2022-10-04T09:47:31.827Z,1019.50
2022-10-04T09:48:31.842Z,1018.89
2022-10-04T09:49:31.841Z,1018.87
2022-10-04T09:50:31.846Z,1018.84
2022-10-04T09:51:31.849Z,1019.10
2022-10-04T09:52:31.858Z,1018.78
2022-10-04T09:53:31.861Z,1019.25
2022-10-04T09:54:31.865Z,1018.94
2022-10-04T09:55:31.872Z,1018.66
2022-10-04T09:56:31.880Z,1019.03
2022-10-04T09:57:31.886Z,1018.91
2022-10-04T09:58:31.892Z,1018.69
2022-10-04T09:59:31.896Z,1018.71
2022-10-04T10:00:31.956Z,1018.84
2022-10-04T10:01:31.992Z,1018.77
2022-10-04T10:02:31.953Z,1018.60
2022-10-04T10:03:31.916Z,1018.87
2022-10-04T10:04:31.930Z,1018.97
2022-10-04T10:05:31.929Z,1018.73
2022-10-04T10:06:31.943Z,1018.66
2022-10-04T10:07:31.944Z,1018.78
2022-10-04T10:08:31.946Z,1018.53
2022-10-04T10:09:31.949Z,1018.63
2022-10-04T10:10:31.956Z,1018.75
2022-10-04T10:11:31.960Z,1018.69
2022-10-04T10:12:31.962Z,1018.62
2022-10-04T10:13:32.256Z,1018.66
2022-10-04T10:14:31.976Z,1018.67
2022-10-04T10:15:31.981Z,1018.53
2022-10-04T10:16:31.987Z,1018.53
2022-10-04T10:17:32.079Z,1018.90
2022-10-04T10:18:31.996Z,1018.71
2022-10-04T10:19:32.004Z,1018.76
2022-10-04T10:20:32.006Z,1018.79
2022-10-04T10:21:32.013Z,1018.91
2022-10-04T10:22:32.022Z,1018.92
2022-10-04T10:23:32.021Z,1018.84
2022-10-04T10:24:32.032Z,1018.77
2022-10-04T10:25:32.033Z,1018.75
2022-10-04T10:26:32.049Z,1018.75
2022-10-04T10:27:32.043Z,1018.69
2022-10-04T10:28:32.090Z,1018.69
2022-10-04T10:29:32.058Z,1018.70
2022-10-04T10:30:32.056Z,1018.68
2022-10-04T10:31:32.179Z,1018.64
2022-10-04T10:32:32.074Z,1018.66
2022-10-04T10:33:32.106Z,1018.66
2022-10-04T10:34:32.086Z,1018.66
2022-10-04T10:35:32.086Z,1018.73
2022-10-04T10:36:32.096Z,1018.86
2022-10-04T10:37:32.098Z,1018.65
2022-10-04T10:38:32.121Z,1018.67
2022-10-04T10:39:32.110Z,1018.65
2022-10-04T10:40:32.119Z,1018.62
2022-10-04T10:41:32.118Z,1018.59
2022-10-04T10:42:32.122Z,1018.62
2022-10-04T10:43:32.127Z,1018.59
2022-10-04T10:44:32.137Z,1018.54
2022-10-04T10:45:32.141Z,1018.49
2022-10-04T10:46:32.225Z,1018.46
2022-10-04T10:47:32.158Z,1018.48
2022-10-04T10:48:32.161Z,1018.44
2022-10-04T10:49:32.191Z,1018.43
2022-10-04T10:50:32.170Z,1018.45
2022-10-04T10:51:32.175Z,1018.47
2022-10-04T10:52:32.180Z,1018.47
2022-10-04T10:53:32.187Z,1018.52
2022-10-04T10:54:32.193Z,1018.49
2022-10-04T10:55:32.197Z,1018.50
2022-10-04T10:56:32.200Z,1018.48
2022-10-04T10:57:32.203Z,1018.52
2022-10-04T10:58:32.222Z,1018.49
2022-10-04T10:59:32.214Z,1018.54
2022-10-04T11:00:32.273Z,1018.53
2022-10-04T11:01:32.350Z,1018.57
2022-10-04T11:02:48.057Z,1018.75
2022-10-04T11:03:32.714Z,1018.59
2022-10-04T11:04:32.237Z,1018.58
2022-10-04T11:05:32.258Z,1018.59
2022-10-04T11:06:32.244Z,1018.55
2022-10-04T11:07:32.247Z,1018.55
2022-10-04T11:08:32.261Z,1018.50
2022-10-04T11:09:32.258Z,1018.58
2022-10-04T11:10:32.264Z,1018.67
2022-10-04T11:11:32.266Z,1018.68
2022-10-04T11:12:32.271Z,1018.55
2022-10-04T11:13:32.276Z,1018.46
2022-10-04T11:14:32.282Z,1018.48
2022-10-04T11:15:32.294Z,1018.47
2022-10-04T11:16:32.334Z,1018.44
2022-10-04T11:17:32.294Z,1018.45
2022-10-04T11:18:32.298Z,1018.45
2022-10-04T11:19:32.299Z,1018.47
2022-10-04T11:20:32.304Z,1018.56
2022-10-04T11:21:32.331Z,1018.45
2022-10-04T11:22:37.429Z,1018.53
2022-10-04T11:23:32.319Z,1018.54
2022-10-04T11:24:32.323Z,1018.45
2022-10-04T11:25:32.324Z,1018.41
2022-10-04T11:26:32.326Z,1018.34
2022-10-04T11:27:32.334Z,1018.33
2022-10-04T11:28:32.488Z,1018.29
2022-10-04T11:29:32.340Z,1018.29
2022-10-04T11:30:32.346Z,1018.31
2022-10-04T11:31:32.407Z,1018.35
2022-10-04T11:32:32.352Z,1018.32
2022-10-04T11:33:32.359Z,1018.32
2022-10-04T11:34:32.358Z,1018.28
2022-10-04T11:35:32.367Z,1018.31
2022-10-04T11:36:32.364Z,1018.24
2022-10-04T11:37:32.395Z,1018.22
2022-10-04T11:38:32.377Z,1018.29
2022-10-04T11:39:32.378Z,1018.37
2022-10-04T11:40:32.382Z,1018.24
2022-10-04T11:41:32.380Z,1018.21
2022-10-04T11:42:32.388Z,1018.26
2022-10-04T11:43:32.403Z,1018.25
2022-10-04T11:44:32.395Z,1018.31
2022-10-04T11:45:32.394Z,1018.53
2022-10-04T11:46:32.485Z,1018.55
2022-10-04T11:47:32.405Z,1018.37
2022-10-04T11:48:32.412Z,1018.38
2022-10-04T11:49:32.409Z,1018.31
2022-10-04T11:50:32.413Z,1018.23
2022-10-04T11:51:32.414Z,1018.15
2022-10-04T11:52:32.417Z,1018.14
2022-10-04T11:53:32.453Z,1018.17
2022-10-04T11:54:32.432Z,1018.12
2022-10-04T11:55:32.425Z,1018.08
2022-10-04T11:56:32.432Z,1018.07
2022-10-04T11:57:32.435Z,1018.05
2022-10-04T11:58:32.441Z,1018.01
2022-10-04T11:59:32.444Z,1018.03
2022-10-04T12:00:32.494Z,1018.05
2022-10-04T12:01:32.453Z,1018.06
2022-10-04T12:02:32.448Z,1018.13
2022-10-04T12:03:32.526Z,1018.15
2022-10-04T12:04:32.561Z,1018.14
2022-10-04T12:05:32.461Z,1018.12
2022-10-04T12:06:32.468Z,1018.11
2022-10-04T12:07:32.463Z,1018.11
2022-10-04T12:08:32.470Z,1018.11
2022-10-04T12:09:32.494Z,1018.09
2022-10-04T12:10:32.474Z,1018.02
2022-10-04T12:11:32.483Z,1017.99